Latest Weather Observations for Gympie

IDQ60901

Issued at 6:51 pm EST Friday 20 October 2017 (issued every 10 minutes, with the page automatically refreshed every 10 minutes)

About weather observations | Map of Brisbane area stations | Latest observations for Brisbane area | Other Formats
Station Details ID: 040093 Name: GYMPIE Lat: -26.18 Lon: 152.64 Height: 64.5 m
Data from the previous 72 hours. | See also: Recent months at Gympie
Date/Time
EST
Temp
°C
App
Temp
°C
Dew
Point
°C
Rel
Hum
%
Delta-T
°C
Wind Press
QNH
hPa
Press
MSL
hPa
Rain since
9am
mm
Dir  Spd
km/h
Gust
km/h
Spd
kts
Gust
kts
20/06:30pm 21.8 22.4 15.2 66 3.9 NE 6 9 3 5 1017.8 1017.6 0.0
20/06:00pm 22.5 23.3 15.8 66 4.0 NE 6 11 3 6 1017.5 1017.3 0.0
20/05:30pm 23.3 23.8 15.6 62 4.6 NE 7 13 4 7 1017.3 1017.1 0.0
20/05:00pm 24.4 24.5 15.6 58 5.3 NE 9 15 5 8 1017.0 1016.8 0.0
20/04:30pm 25.4 25.9 15.1 53 6.2 NE 6 11 3 6 1016.9 1016.7 0.0
20/04:00pm 25.6 26.1 15.0 52 6.4 ENE 6 7 3 4 1016.9 1016.7 0.0
20/03:30pm 25.7 26.5 14.8 51 6.6 E 4 7 2 4 1017.0 1016.8 0.0
20/03:00pm 26.0 26.5 14.1 47 7.1 E 4 9 2 5 1017.1 1016.9 0.0
20/02:30pm 26.7 28.1 16.3 53 6.4 E 4 6 2 3 1017.5 1017.3 0.0
20/02:00pm 25.9 26.3 14.7 50 6.7 ENE 6 13 3 7 1017.9 1017.7 0.0
20/01:30pm 26.4 27.3 15.1 49 6.8 SSE 4 6 2 3 1018.6 1018.4 0.0
20/01:00pm 25.5 26.2 14.6 51 6.5 NE 4 9 2 5 1019.1 1018.9 0.0
20/12:30pm 25.0 25.8 14.8 53 6.1 ENE 4 9 2 5 1019.6 1019.4 0.0
20/12:00pm 24.8 24.9 14.0 51 6.4 WNW 6 9 3 5 1019.9 1019.7 0.0
20/11:30am 24.3 24.0 14.4 54 5.9 NNW 9 15 5 8 1020.3 1020.1 0.0
20/11:00am 24.4 25.4 14.2 53 6.0 NNE 2 4 1 2 1020.8 1020.6 0.0
20/10:30am 24.4 25.5 15.6 58 5.3 E 4 7 2 4 1021.1 1020.9 0.0
20/10:00am 23.9 24.3 15.4 59 5.1 E 7 13 4 7 1021.4 1021.2 0.0
20/09:30am 23.9 24.1 14.6 56 5.5 SE 7 13 4 7 1021.5 1021.3 0.0
20/09:00am 23.0 23.8 15.8 64 4.3 SE 6 13 3 7 1021.8 1021.6 0.0
20/08:30am 22.3 24.2 17.7 75 2.9 SSE 4 6 2 3 1022.0 1021.8 0.0
20/08:00am 21.0 23.5 18.2 84 1.7 S 2 4 1 2 1022.1 1021.9 0.0
20/07:30am 19.6 21.9 17.7 89 1.2 S 2 2 1 1 1021.9 1021.7 0.0
20/07:00am 18.2 20.8 17.4 95 0.5 CALM 0 0 0 0 1021.9 1021.7 0.0
20/06:30am 15.8 17.7 15.8 100 0.0 CALM 0 0 0 0 1021.9 1021.7 0.0
20/06:00am 14.5 15.9 14.5 100 0.0 CALM 0 0 0 0 1021.7 1021.5 0.0
20/05:30am 14.6 16.1 14.6 100 0.0 CALM 0 0 0 0 1021.3 1021.1 0.0
20/05:00am 14.7 16.2 14.7 100 0.0 CALM 0 0 0 0 1020.9 1020.7 0.0
20/04:30am 14.7 16.1 14.5 99 0.1 CALM 0 0 0 0 1020.7 1020.5 0.0
20/04:00am 15.0 16.5 14.7 98 0.2 CALM 0 0 0 0 1020.6 1020.4 0.0
20/03:30am 15.1 16.6 14.6 97 0.3 CALM 0 0 0 0 1020.6 1020.4 0.0
20/03:00am 15.6 17.4 15.4 99 0.1 CALM 0 0 0 0 1020.6 1020.4 0.0
20/02:30am 15.7 17.5 15.5 99 0.1 CALM 0 0 0 0 1020.9 1020.7 0.0
20/02:00am 15.5 17.2 15.3 99 0.1 CALM 0 0 0 0 1021.2 1021.0 0.0
20/01:30am 15.6 17.3 15.3 98 0.2 CALM 0 0 0 0 1021.5 1021.3 0.0
20/01:00am 15.8 17.6 15.5 98 0.2 CALM 0 0 0 0 1021.8 1021.6 0.0
20/12:30am 16.3 18.2 15.8 97 0.3 CALM 0 0 0 0 1022.2 1022.0 0.0
20/12:00am 16.5 18.5 15.9 96 0.4 CALM 0 0 0 0 1022.7 1022.5 0.0
 
Date/Time
EST
Temp
°C
App
Temp
°C
Dew
Point
°C
Rel
Hum
%
Delta-T
°C
Wind Press
QNH
hPa
Press
MSL
hPa
Rain since
9am
mm
Dir  Spd
km/h
Gust
km/h
Spd
kts
Gust
kts
19/11:30pm 16.6 18.6 16.0 96 0.4 CALM 0 0 0 0 1023.3 1023.0 0.0
19/11:00pm 17.0 19.2 16.4 96 0.4 CALM 0 0 0 0 1023.8 1023.5 0.0
19/10:30pm 17.4 19.6 16.6 95 0.5 CALM 0 0 0 0 1024.3 1024.0 0.0
19/10:00pm 17.9 20.1 16.4 91 0.9 CALM 0 0 0 0 1024.6 1024.3 0.0
19/09:30pm 18.3 20.5 16.6 90 1.0 CALM 0 0 0 0 1024.5 1024.2 0.0
19/09:00pm 18.3 20.5 16.5 89 1.1 CALM 0 0 0 0 1024.4 1024.1 0.0
19/08:30pm 18.4 20.6 16.4 88 1.2 CALM 0 0 0 0 1024.3 1024.0 0.0
19/08:00pm 18.7 20.3 15.9 84 1.7 SSE 2 2 1 1 1024.2 1023.9 0.0
19/07:30pm 19.3 20.5 16.0 81 2.0 SE 4 4 2 2 1024.1 1023.8 0.0
19/07:00pm 20.6 21.9 16.2 76 2.6 ESE 4 7 2 4 1024.0 1023.7 0.0
19/06:30pm 20.5 21.8 16.1 76 2.6 SE 4 6 2 3 1023.7 1023.4 0.0
19/06:00pm 21.2 22.1 16.0 72 3.1 SE 6 13 3 7 1023.3 1023.0 0.0
19/05:30pm 22.1 21.4 15.5 66 4.0 ESE 13 20 7 11 1022.8 1022.6 0.0
19/05:00pm 22.4 21.4 15.5 65 4.1 ESE 15 22 8 12 1022.5 1022.3 0.0
19/04:30pm 23.6 23.0 15.6 61 4.8 E 13 24 7 13 1022.2 1022.0 0.0
19/04:00pm 24.6 24.3 15.5 57 5.5 E 11 17 6 9 1022.0 1021.8 0.0
19/03:30pm 24.7 24.1 14.5 53 6.1 E 11 22 6 12 1022.0 1021.8 0.0
19/03:00pm 24.9 23.4 14.1 51 6.4 ESE 15 28 8 15 1022.0 1021.8 0.0
19/02:30pm 24.3 23.0 13.8 52 6.2 ESE 13 24 7 13 1022.2 1022.0 0.0
19/02:00pm 24.9 23.7 14.1 51 6.4 ESE 13 28 7 15 1022.5 1022.3 0.0
19/01:30pm 25.3 24.6 15.3 54 6.0 ESE 13 22 7 12 1022.8 1022.6 0.0
19/01:00pm 24.6 23.0 15.0 55 5.7 ESE 17 24 9 13 1023.3 1023.0 0.0
19/12:30pm 25.8 24.4 16.6 56 5.7 E 19 30 10 16 1023.5 1023.2 0.0
19/12:00pm 24.7 25.3 16.7 61 4.9 ESE 9 17 5 9 1023.8 1023.5 0.0
19/11:30am 23.6 24.1 16.6 65 4.3 ESE 9 17 5 9 1024.0 1023.7 0.0
19/11:00am 24.0 23.5 16.0 61 4.8 E 13 26 7 14 1024.1 1023.8 0.0
19/10:30am 24.4 24.1 16.4 61 4.9 E 13 22 7 12 1024.1 1023.8 0.0
19/10:00am 24.8 24.8 16.2 58 5.2 E 11 19 6 10 1024.2 1023.9 0.0
19/09:30am 24.1 23.3 16.1 61 4.9 SE 15 26 8 14 1024.6 1024.3 0.0
19/09:00am 23.1 23.9 17.3 70 3.6 ESE 9 17 5 9 1024.7 1024.4 6.4
19/08:30am 22.2 24.6 19.6 85 1.7 SSE 6 11 3 6 1025.0 1024.7 6.4
19/08:00am 20.9 23.5 20.1 95 0.5 SSE 6 9 3 5 1025.1 1024.8 6.4
19/07:30am 19.4 21.2 18.2 93 0.7 SE 6 9 3 5 1025.0 1024.7 6.4
19/07:00am 19.1 22.0 19.1 100 0.0 SSE 2 6 1 3 1024.7 1024.4 6.4
19/06:30am 18.4 20.6 18.4 100 0.0 SE 4 7 2 4 1024.7 1024.4 6.4
19/06:00am 18.3 19.9 18.3 100 0.0 SSE 7 9 4 5 1024.3 1024.0 5.8
19/05:30am 18.3 20.5 18.3 100 0.0 SSE 4 7 2 4 1024.0 1023.7 5.8
19/05:00am 18.1 19.8 18.1 100 0.0 SSE 6 7 3 4 1023.9 1023.6 5.6
19/04:30am 18.1 19.8 18.1 100 0.0 SSE 6 9 3 5 1023.5 1023.2 4.0
19/04:00am 18.1 20.2 18.1 100 0.0 SSE 4 6 2 3 1023.4 1023.1 4.0
19/03:30am 18.2 20.3 18.0 99 0.1 S 4 6 2 3 1023.4 1023.1 3.6
19/03:00am 18.1 20.4 17.8 98 0.2 SE 2 4 1 2 1023.4 1023.1 3.6
19/02:30am 18.3 19.8 18.0 98 0.2 SE 7 11 4 6 1023.5 1023.2 3.4
19/02:00am 18.4 20.0 18.2 99 0.1 SSE 7 13 4 7 1023.6 1023.3 3.4
19/01:30am 18.3 20.0 18.1 99 0.1 SSE 6 7 3 4 1023.8 1023.5 3.4
19/01:00am 18.3 20.4 18.1 99 0.1 SSE 4 9 2 5 1024.0 1023.7 3.4
19/12:30am 18.5 20.3 18.3 99 0.1 SSE 6 9 3 5 1024.2 1023.9 3.4
19/12:00am 18.6 20.8 18.4 99 0.1 SSE 4 6 2 3 1024.5 1024.2 3.4
 
Date/Time
EST
Temp
°C
App
Temp
°C
Dew
Point
°C
Rel
Hum
%
Delta-T
°C
Wind Press
QNH
hPa
Press
MSL
hPa
Rain since
9am
mm
Dir  Spd
km/h
Gust
km/h
Spd
kts
Gust
kts
18/11:30pm 18.6 20.8 18.4 99 0.1 SE 4 6 2 3 1024.7 1024.4 3.2
18/11:00pm 18.4 20.5 18.2 99 0.1 SSE 4 9 2 5 1024.8 1024.5 3.2
18/10:30pm 18.3 20.4 18.1 99 0.1 SE 4 7 2 4 1024.8 1024.5 3.2
18/10:00pm 18.8 20.7 18.6 99 0.1 SE 6 11 3 6 1024.9 1024.6 3.2
18/09:30pm 18.7 20.5 18.7 100 0.0 SE 7 13 4 7 1025.0 1024.7 3.2
18/09:00pm 18.7 20.5 18.7 100 0.0 SSE 7 13 4 7 1024.8 1024.5 2.6
18/08:30pm 18.9 20.7 18.7 99 0.1 SSE 7 9 4 5 1024.7 1024.4 2.0
18/08:00pm 19.1 21.0 18.9 99 0.1 SE 7 11 4 6 1024.3 1024.0 2.0
18/07:30pm 19.1 21.0 18.9 99 0.1 SSE 7 11 4 6 1024.0 1023.7 2.0
18/07:00pm 19.1 21.2 18.9 99 0.1 SSE 6 7 3 4 1023.5 1023.2 1.8
18/06:30pm 19.2 21.4 19.2 100 0.0 SE 6 11 3 6 1023.2 1022.9 1.8
18/06:00pm 19.2 21.3 19.0 99 0.1 SE 6 9 3 5 1022.7 1022.5 1.8
18/05:30pm 19.4 20.6 19.1 98 0.2 SE 11 19 6 10 1022.4 1022.2 1.0
18/05:00pm 20.2 21.9 19.4 95 0.5 SSE 9 17 5 9 1022.0 1021.8 0.2
18/04:30pm 20.0 21.7 19.3 96 0.4 SE 9 19 5 10 1021.8 1021.6 0.2
18/04:00pm 21.4 22.3 18.4 83 1.9 SSE 11 19 6 10 1021.6 1021.4 0.0
18/03:30pm 22.4 20.8 17.5 74 3.0 ESE 22 37 12 20 1021.4 1021.2 0.0
18/03:00pm 23.1 21.9 17.6 71 3.4 ESE 20 37 11 20 1021.2 1021.0 0.0
18/02:30pm 22.7 22.5 18.5 77 2.6 SE 17 26 9 14 1021.4 1021.2 0.0
18/02:00pm 22.6 23.1 19.2 81 2.2 SE 15 30 8 16 1021.7 1021.5 0.0
18/01:30pm 22.8 22.3 19.2 80 2.3 ESE 20 35 11 19 1021.9 1021.7 0.0
18/01:00pm 22.9 23.0 19.1 79 2.4 SE 17 32 9 17 1021.9 1021.7 0.0
18/12:30pm 23.4 22.1 18.1 72 3.3 ESE 22 35 12 19 1022.1 1021.9 0.0
18/12:00pm 23.4 22.5 18.3 73 3.2 SE 20 37 11 20 1022.2 1022.0 0.0
18/11:30am 23.2 22.4 18.1 73 3.2 ESE 19 41 10 22 1022.5 1022.3 0.0
18/11:00am 22.9 22.1 18.4 76 2.8 ESE 20 43 11 23 1022.8 1022.6 0.0
18/10:30am 22.5 23.0 20.0 86 1.6 ESE 17 28 9 15 1022.9 1022.7 0.0
18/10:00am 21.9 22.6 19.6 87 1.5 ESE 15 32 8 17 1023.1 1022.8 0.0
18/09:30am 21.2 21.6 19.8 92 0.9 ESE 17 26 9 14 1023.2 1022.9 0.0
18/09:00am 21.3 22.1 19.9 92 0.9 ESE 15 32 8 17 1022.9 1022.7 16.6
18/08:30am 20.8 21.6 19.8 94 0.6 E 15 26 8 14 1022.5 1022.3 16.4
18/08:00am 21.5 22.4 20.1 92 0.9 ESE 15 30 8 16 1022.1 1021.9 16.0
18/07:30am 20.7 21.9 20.0 96 0.4 ESE 13 28 7 15 1021.8 1021.6 16.0
18/07:00am 20.6 21.8 19.9 96 0.4 ESE 13 24 7 13 1021.5 1021.3 15.6
18/06:30am 20.3 22.3 20.0 98 0.2 SE 9 19 5 10 1021.1 1020.9 15.2
18/06:00am 20.0 21.6 20.0 100 0.0 SE 11 20 6 11 1020.8 1020.6 15.2
18/05:30am 19.9 22.2 19.9 100 0.0 SE 7 11 4 6 1020.3 1020.1 14.4
18/05:00am 19.9 21.9 19.9 100 0.0 SE 9 15 5 8 1019.9 1019.7 13.6
18/04:30am 19.9 21.9 19.9 100 0.0 SE 9 17 5 9 1019.5 1019.3 13.2
18/04:00am 19.7 22.1 19.7 100 0.0 SE 6 11 3 6 1019.4 1019.2 13.2
18/03:30am 19.7 22.1 19.7 100 0.0 SE 6 9 3 5 1019.1 1018.9 12.8
18/03:00am 19.6 22.0 19.6 100 0.0 SE 6 9 3 5 1019.1 1018.9 12.0
18/02:30am 19.6 21.8 19.6 100 0.0 SSE 7 13 4 7 1019.1 1018.9 11.6
18/02:00am 19.7 21.9 19.5 99 0.1 SE 7 13 4 7 1019.3 1019.1 10.8
18/01:30am 19.8 22.0 19.6 99 0.1 SE 7 15 4 8 1019.6 1019.4 10.6
18/01:00am 19.7 21.6 19.7 100 0.0 SE 9 22 5 12 1019.9 1019.7 10.4
18/12:30am 19.7 22.1 19.7 100 0.0 SE 6 11 3 6 1020.1 1019.9 9.6
18/12:00am 19.8 21.6 19.6 99 0.1 SE 9 15 5 8 1020.4 1020.2 9.2
 
Date/Time
EST
Temp
°C
App
Temp
°C
Dew
Point
°C
Rel
Hum
%
Delta-T
°C
Wind Press
QNH
hPa
Press
MSL
hPa
Rain since
9am
mm
Dir  Spd
km/h
Gust
km/h
Spd
kts
Gust
kts
17/11:30pm 19.9 21.8 19.7 99 0.1 SE 9 20 5 11 1020.9 1020.7 8.8
17/11:00pm 19.8 21.3 19.8 100 0.0 SE 11 19 6 10 1020.9 1020.7 8.4
17/10:30pm 19.8 22.1 19.8 100 0.0 SE 7 13 4 7 1020.9 1020.7 7.8
17/10:00pm 19.7 21.9 19.7 100 0.0 SSE 7 13 4 7 1020.9 1020.7 7.4
17/09:30pm 19.8 21.6 19.6 99 0.1 SE 9 17 5 9 1020.9 1020.7 7.4
17/09:00pm 19.7 21.9 19.7 100 0.0 SSE 7 15 4 8 1020.8 1020.6 7.2
17/08:30pm 19.8 21.6 19.6 99 0.1 SE 9 15 5 8 1020.6 1020.4 6.8
17/08:00pm 20.1 21.8 19.4 96 0.4 SE 9 19 5 10 1020.3 1020.1 4.6
17/07:30pm 20.2 21.2 19.5 96 0.4 SE 13 30 7 16 1020.1 1019.9 4.4
17/07:00pm 20.2 22.4 19.5 96 0.4 SE 7 13 4 7 1019.8 1019.6 4.2

Latest Capital City Observations: Canberra | Sydney | Melbourne | Brisbane | Adelaide | Perth | Hobart | Darwin

Other Formats:

Comma delimited format used in spreadsheet applications
http://www.bom.gov.au/fwo/IDQ60901/IDQ60901.94566.axf

JavaScript Object Notation format (JSON) in row-major order
http://www.bom.gov.au/fwo/IDQ60901/IDQ60901.94566.json